sensor_id;sensor_type;location;lat;lon;timestamp;temperature;humidity
40932;DHT22;36257;46.052;12.540;2024-01-25T00:01:28;4.60;99.90
40932;DHT22;36257;46.052;12.540;2024-01-25T00:03:54;4.60;99.90
40932;DHT22;36257;46.052;12.540;2024-01-25T00:06:20;4.60;99.90
40932;DHT22;36257;46.052;12.540;2024-01-25T00:08:46;4.60;99.90
40932;DHT22;36257;46.052;12.540;2024-01-25T00:11:12;4.60;99.90
40932;DHT22;36257;46.052;12.540;2024-01-25T00:13:38;4.50;99.90
40932;DHT22;36257;46.052;12.540;2024-01-25T00:16:04;4.50;99.90
40932;DHT22;36257;46.052;12.540;2024-01-25T00:18:30;4.60;99.90
40932;DHT22;36257;46.052;12.540;2024-01-25T00:20:56;4.50;99.90
40932;DHT22;36257;46.052;12.540;2024-01-25T00:23:22;4.60;99.90
40932;DHT22;36257;46.052;12.540;2024-01-25T00:25:47;4.50;99.90
40932;DHT22;36257;46.052;12.540;2024-01-25T00:28:13;4.50;99.90
40932;DHT22;36257;46.052;12.540;2024-01-25T00:30:39;4.50;99.90
40932;DHT22;36257;46.052;12.540;2024-01-25T00:33:05;4.50;99.90
40932;DHT22;36257;46.052;12.540;2024-01-25T00:35:31;4.50;99.90
40932;DHT22;36257;46.052;12.540;2024-01-25T00:37:57;4.50;99.90
40932;DHT22;36257;46.052;12.540;2024-01-25T00:40:23;4.40;99.90
40932;DHT22;36257;46.052;12.540;2024-01-25T00:42:49;4.40;99.90
40932;DHT22;36257;46.052;12.540;2024-01-25T00:45:22;4.50;99.90
40932;DHT22;36257;46.052;12.540;2024-01-25T00:47:48;4.50;99.90
40932;DHT22;36257;46.052;12.540;2024-01-25T00:50:15;4.60;99.90
40932;DHT22;36257;46.052;12.540;2024-01-25T00:52:43;4.60;99.90
40932;DHT22;36257;46.052;12.540;2024-01-25T00:55:10;4.50;99.90
40932;DHT22;36257;46.052;12.540;2024-01-25T00:57:36;4.50;99.90
40932;DHT22;36257;46.052;12.540;2024-01-25T01:00:03;4.50;99.90
40932;DHT22;36257;46.052;12.540;2024-01-25T01:02:31;4.50;99.90
40932;DHT22;36257;46.052;12.540;2024-01-25T01:04:59;4.50;99.90
40932;DHT22;36257;46.052;12.540;2024-01-25T01:07:25;4.40;99.90
40932;DHT22;36257;46.052;12.540;2024-01-25T01:09:51;4.50;99.90
40932;DHT22;36257;46.052;12.540;2024-01-25T01:12:17;4.60;99.90
40932;DHT22;36257;46.052;12.540;2024-01-25T01:14:43;4.50;99.90
40932;DHT22;36257;46.052;12.540;2024-01-25T01:17:08;4.50;99.90
40932;DHT22;36257;46.052;12.540;2024-01-25T01:19:34;4.50;99.90
40932;DHT22;36257;46.052;12.540;2024-01-25T01:22:00;4.50;99.90
40932;DHT22;36257;46.052;12.540;2024-01-25T01:24:26;4.60;99.90
40932;DHT22;36257;46.052;12.540;2024-01-25T01:26:51;4.60;99.90
40932;DHT22;36257;46.052;12.540;2024-01-25T01:29:17;4.60;99.90
40932;DHT22;36257;46.052;12.540;2024-01-25T01:31:43;4.60;99.90
40932;DHT22;36257;46.052;12.540;2024-01-25T01:34:09;4.60;99.90
40932;DHT22;36257;46.052;12.540;2024-01-25T01:36:35;4.60;99.90
40932;DHT22;36257;46.052;12.540;2024-01-25T01:39:00;4.50;99.90
40932;DHT22;36257;46.052;12.540;2024-01-25T01:41:26;4.50;99.90
40932;DHT22;36257;46.052;12.540;2024-01-25T01:43:55;4.60;99.90
40932;DHT22;36257;46.052;12.540;2024-01-25T01:46:40;4.60;99.90
40932;DHT22;36257;46.052;12.540;2024-01-25T01:49:08;4.60;99.90
40932;DHT22;36257;46.052;12.540;2024-01-25T01:51:36;4.60;99.90
40932;DHT22;36257;46.052;12.540;2024-01-25T01:54:03;4.60;99.90
40932;DHT22;36257;46.052;12.540;2024-01-25T01:56:31;4.50;99.90
40932;DHT22;36257;46.052;12.540;2024-01-25T01:59:05;4.60;99.90
40932;DHT22;36257;46.052;12.540;2024-01-25T02:01:33;4.60;99.90
40932;DHT22;36257;46.052;12.540;2024-01-25T02:03:59;4.50;99.90
40932;DHT22;36257;46.052;12.540;2024-01-25T02:06:24;4.50;99.90
40932;DHT22;36257;46.052;12.540;2024-01-25T02:08:50;4.60;99.90
40932;DHT22;36257;46.052;12.540;2024-01-25T02:11:18;4.60;99.90
40932;DHT22;36257;46.052;12.540;2024-01-25T02:13:44;4.60;99.90
40932;DHT22;36257;46.052;12.540;2024-01-25T02:16:10;4.60;99.90
40932;DHT22;36257;46.052;12.540;2024-01-25T02:18:36;4.60;99.90
40932;DHT22;36257;46.052;12.540;2024-01-25T02:21:02;4.50;99.90
40932;DHT22;36257;46.052;12.540;2024-01-25T02:23:27;4.60;99.90
40932;DHT22;36257;46.052;12.540;2024-01-25T02:25:53;4.50;99.90
40932;DHT22;36257;46.052;12.540;2024-01-25T02:28:19;4.50;99.90
40932;DHT22;36257;46.052;12.540;2024-01-25T02:30:45;4.60;99.90
40932;DHT22;36257;46.052;12.540;2024-01-25T02:33:10;4.60;99.90
40932;DHT22;36257;46.052;12.540;2024-01-25T02:35:37;4.50;99.90
40932;DHT22;36257;46.052;12.540;2024-01-25T02:38:02;4.50;99.90
40932;DHT22;36257;46.052;12.540;2024-01-25T02:40:28;4.60;99.90
40932;DHT22;36257;46.052;12.540;2024-01-25T02:42:54;4.60;99.90
40932;DHT22;36257;46.052;12.540;2024-01-25T02:45:19;4.70;99.90
40932;DHT22;36257;46.052;12.540;2024-01-25T02:47:45;4.70;99.90
40932;DHT22;36257;46.052;12.540;2024-01-25T02:50:11;4.70;99.90
40932;DHT22;36257;46.052;12.540;2024-01-25T02:52:36;4.80;99.90
40932;DHT22;36257;46.052;12.540;2024-01-25T02:55:02;4.80;99.90
40932;DHT22;36257;46.052;12.540;2024-01-25T02:57:29;4.80;99.90
40932;DHT22;36257;46.052;12.540;2024-01-25T02:59:56;4.80;99.90
40932;DHT22;36257;46.052;12.540;2024-01-25T03:02:22;4.90;99.90
40932;DHT22;36257;46.052;12.540;2024-01-25T03:04:48;5.00;99.90
40932;DHT22;36257;46.052;12.540;2024-01-25T03:07:14;5.00;99.90
40932;DHT22;36257;46.052;12.540;2024-01-25T03:09:39;5.10;99.90
40932;DHT22;36257;46.052;12.540;2024-01-25T03:12:05;5.20;99.90
40932;DHT22;36257;46.052;12.540;2024-01-25T03:14:31;5.10;99.90
40932;DHT22;36257;46.052;12.540;2024-01-25T03:16:57;5.10;99.90
40932;DHT22;36257;46.052;12.540;2024-01-25T03:19:26;5.10;99.90
40932;DHT22;36257;46.052;12.540;2024-01-25T03:21:53;5.10;99.90
40932;DHT22;36257;46.052;12.540;2024-01-25T03:24:20;5.10;99.90
40932;DHT22;36257;46.052;12.540;2024-01-25T03:26:45;5.10;99.90
40932;DHT22;36257;46.052;12.540;2024-01-25T03:29:11;5.10;99.90
40932;DHT22;36257;46.052;12.540;2024-01-25T03:31:37;5.00;99.90
40932;DHT22;36257;46.052;12.540;2024-01-25T03:34:03;5.10;99.90
40932;DHT22;36257;46.052;12.540;2024-01-25T03:36:28;5.10;99.90
40932;DHT22;36257;46.052;12.540;2024-01-25T03:38:54;5.00;99.90
40932;DHT22;36257;46.052;12.540;2024-01-25T03:41:20;5.00;99.90
40932;DHT22;36257;46.052;12.540;2024-01-25T03:43:46;5.00;99.90
40932;DHT22;36257;46.052;12.540;2024-01-25T03:46:12;5.00;99.90
40932;DHT22;36257;46.052;12.540;2024-01-25T03:48:38;5.00;99.90
40932;DHT22;36257;46.052;12.540;2024-01-25T03:51:03;5.10;99.90
40932;DHT22;36257;46.052;12.540;2024-01-25T03:53:29;5.20;99.90
40932;DHT22;36257;46.052;12.540;2024-01-25T03:55:55;5.20;99.90
40932;DHT22;36257;46.052;12.540;2024-01-25T03:58:20;5.20;99.60
40932;DHT22;36257;46.052;12.540;2024-01-25T04:00:46;5.10;99.60
40932;DHT22;36257;46.052;12.540;2024-01-25T04:03:12;5.20;99.40
40932;DHT22;36257;46.052;12.540;2024-01-25T04:05:38;5.20;99.40
40932;DHT22;36257;46.052;12.540;2024-01-25T04:08:05;5.20;99.40
40932;DHT22;36257;46.052;12.540;2024-01-25T04:10:31;5.30;99.50
40932;DHT22;36257;46.052;12.540;2024-01-25T04:12:57;5.40;99.00
40932;DHT22;36257;46.052;12.540;2024-01-25T04:15:22;5.40;99.10
40932;DHT22;36257;46.052;12.540;2024-01-25T04:17:48;5.40;99.20
40932;DHT22;36257;46.052;12.540;2024-01-25T04:20:15;5.50;99.40
40932;DHT22;36257;46.052;12.540;2024-01-25T04:22:41;5.60;98.90
40932;DHT22;36257;46.052;12.540;2024-01-25T04:25:07;5.60;98.80
40932;DHT22;36257;46.052;12.540;2024-01-25T04:27:32;5.50;99.20
40932;DHT22;36257;46.052;12.540;2024-01-25T04:29:58;5.50;99.30
40932;DHT22;36257;46.052;12.540;2024-01-25T04:32:24;5.50;99.30
40932;DHT22;36257;46.052;12.540;2024-01-25T04:34:49;5.50;99.40
40932;DHT22;36257;46.052;12.540;2024-01-25T04:37:15;5.50;99.50
40932;DHT22;36257;46.052;12.540;2024-01-25T04:39:41;5.50;99.60
40932;DHT22;36257;46.052;12.540;2024-01-25T04:42:07;5.60;99.20
40932;DHT22;36257;46.052;12.540;2024-01-25T04:44:33;5.60;99.60
40932;DHT22;36257;46.052;12.540;2024-01-25T04:46:59;5.60;99.60
40932;DHT22;36257;46.052;12.540;2024-01-25T04:49:25;5.60;99.70
40932;DHT22;36257;46.052;12.540;2024-01-25T04:51:50;5.70;99.70
40932;DHT22;36257;46.052;12.540;2024-01-25T04:54:16;5.60;99.70
40932;DHT22;36257;46.052;12.540;2024-01-25T04:56:42;5.60;99.90
40932;DHT22;36257;46.052;12.540;2024-01-25T04:59:08;5.60;99.90
40932;DHT22;36257;46.052;12.540;2024-01-25T05:01:33;5.60;99.90
40932;DHT22;36257;46.052;12.540;2024-01-25T05:04:00;5.60;99.90
40932;DHT22;36257;46.052;12.540;2024-01-25T05:06:25;5.50;99.90
40932;DHT22;36257;46.052;12.540;2024-01-25T05:08:51;5.60;99.90
40932;DHT22;36257;46.052;12.540;2024-01-25T05:11:17;5.70;99.60
40932;DHT22;36257;46.052;12.540;2024-01-25T05:13:43;5.70;99.30
40932;DHT22;36257;46.052;12.540;2024-01-25T05:16:08;5.80;99.10
40932;DHT22;36257;46.052;12.540;2024-01-25T05:18:34;5.80;99.20
40932;DHT22;36257;46.052;12.540;2024-01-25T05:21:00;5.80;99.10
40932;DHT22;36257;46.052;12.540;2024-01-25T05:23:25;5.80;99.40
40932;DHT22;36257;46.052;12.540;2024-01-25T05:25:52;5.80;99.60
40932;DHT22;36257;46.052;12.540;2024-01-25T05:28:18;5.90;99.30
40932;DHT22;36257;46.052;12.540;2024-01-25T05:30:43;5.80;99.30
40932;DHT22;36257;46.052;12.540;2024-01-25T05:33:09;5.70;99.70
40932;DHT22;36257;46.052;12.540;2024-01-25T05:35:35;5.70;99.90
40932;DHT22;36257;46.052;12.540;2024-01-25T05:38:01;5.80;99.80
40932;DHT22;36257;46.052;12.540;2024-01-25T05:40:26;5.80;99.50
40932;DHT22;36257;46.052;12.540;2024-01-25T05:42:52;5.70;99.90
40932;DHT22;36257;46.052;12.540;2024-01-25T05:45:18;5.60;99.90
40932;DHT22;36257;46.052;12.540;2024-01-25T05:47:50;5.70;99.90
40932;DHT22;36257;46.052;12.540;2024-01-25T05:50:16;5.70;99.90
40932;DHT22;36257;46.052;12.540;2024-01-25T05:52:42;5.70;99.90
40932;DHT22;36257;46.052;12.540;2024-01-25T05:55:08;5.70;99.90
40932;DHT22;36257;46.052;12.540;2024-01-25T05:57:35;5.70;99.60
40932;DHT22;36257;46.052;12.540;2024-01-25T06:00:01;5.90;99.10
40932;DHT22;36257;46.052;12.540;2024-01-25T06:02:26;6.00;98.20
40932;DHT22;36257;46.052;12.540;2024-01-25T06:04:52;6.00;98.30
40932;DHT22;36257;46.052;12.540;2024-01-25T06:07:18;6.00;98.20
40932;DHT22;36257;46.052;12.540;2024-01-25T06:09:43;6.00;98.50
40932;DHT22;36257;46.052;12.540;2024-01-25T06:12:09;6.10;98.60
40932;DHT22;36257;46.052;12.540;2024-01-25T06:14:35;6.10;98.90
40932;DHT22;36257;46.052;12.540;2024-01-25T06:17:00;6.10;99.10
40932;DHT22;36257;46.052;12.540;2024-01-25T06:19:26;6.00;99.50
40932;DHT22;36257;46.052;12.540;2024-01-25T06:21:51;6.00;99.10
40932;DHT22;36257;46.052;12.540;2024-01-25T06:24:17;6.00;99.30
40932;DHT22;36257;46.052;12.540;2024-01-25T06:26:43;6.10;98.90
40932;DHT22;36257;46.052;12.540;2024-01-25T06:29:08;6.00;98.90
40932;DHT22;36257;46.052;12.540;2024-01-25T06:31:43;6.00;99.20
40932;DHT22;36257;46.052;12.540;2024-01-25T06:34:09;6.10;99.30
40932;DHT22;36257;46.052;12.540;2024-01-25T06:36:35;6.20;98.90
40932;DHT22;36257;46.052;12.540;2024-01-25T06:39:01;6.20;99.10
40932;DHT22;36257;46.052;12.540;2024-01-25T06:41:26;6.20;99.10
40932;DHT22;36257;46.052;12.540;2024-01-25T06:43:52;6.20;99.30
40932;DHT22;36257;46.052;12.540;2024-01-25T06:46:18;6.20;99.10
40932;DHT22;36257;46.052;12.540;2024-01-25T06:48:43;6.10;99.50
40932;DHT22;36257;46.052;12.540;2024-01-25T06:51:09;6.20;99.60
40932;DHT22;36257;46.052;12.540;2024-01-25T06:53:36;6.30;99.50
40932;DHT22;36257;46.052;12.540;2024-01-25T06:56:02;6.20;99.70
40932;DHT22;36257;46.052;12.540;2024-01-25T06:58:27;6.20;99.30
40932;DHT22;36257;46.052;12.540;2024-01-25T07:00:53;6.30;99.00
40932;DHT22;36257;46.052;12.540;2024-01-25T07:03:19;6.40;98.60
40932;DHT22;36257;46.052;12.540;2024-01-25T07:05:44;6.50;98.40
40932;DHT22;36257;46.052;12.540;2024-01-25T07:08:10;6.40;98.40
40932;DHT22;36257;46.052;12.540;2024-01-25T07:10:42;6.50;98.50
40932;DHT22;36257;46.052;12.540;2024-01-25T07:13:08;6.50;98.40
40932;DHT22;36257;46.052;12.540;2024-01-25T07:15:34;6.50;98.70
40932;DHT22;36257;46.052;12.540;2024-01-25T07:17:59;6.60;98.20
40932;DHT22;36257;46.052;12.540;2024-01-25T07:20:25;6.50;98.50
40932;DHT22;36257;46.052;12.540;2024-01-25T07:22:51;6.40;99.40
40932;DHT22;36257;46.052;12.540;2024-01-25T07:25:16;6.40;99.60
40932;DHT22;36257;46.052;12.540;2024-01-25T07:27:47;6.50;99.40
40932;DHT22;36257;46.052;12.540;2024-01-25T07:30:13;6.60;99.30
40932;DHT22;36257;46.052;12.540;2024-01-25T07:32:42;6.70;99.20
40932;DHT22;36257;46.052;12.540;2024-01-25T07:35:08;6.50;99.70
40932;DHT22;36257;46.052;12.540;2024-01-25T07:37:38;6.50;99.90
40932;DHT22;36257;46.052;12.540;2024-01-25T07:40:04;6.50;99.90
40932;DHT22;36257;46.052;12.540;2024-01-25T07:42:30;6.50;99.90
40932;DHT22;36257;46.052;12.540;2024-01-25T07:44:57;6.50;99.60
40932;DHT22;36257;46.052;12.540;2024-01-25T07:47:22;6.50;99.50
40932;DHT22;36257;46.052;12.540;2024-01-25T07:49:48;6.60;99.60
40932;DHT22;36257;46.052;12.540;2024-01-25T07:52:14;6.60;99.50
40932;DHT22;36257;46.052;12.540;2024-01-25T07:54:40;6.60;99.70
40932;DHT22;36257;46.052;12.540;2024-01-25T07:57:06;6.70;99.50
40932;DHT22;36257;46.052;12.540;2024-01-25T07:59:31;6.80;99.40
40932;DHT22;36257;46.052;12.540;2024-01-25T08:01:57;6.90;99.70
40932;DHT22;36257;46.052;12.540;2024-01-25T08:04:23;6.90;99.40
40932;DHT22;36257;46.052;12.540;2024-01-25T08:06:48;6.90;99.50
40932;DHT22;36257;46.052;12.540;2024-01-25T08:09:14;7.00;99.50
40932;DHT22;36257;46.052;12.540;2024-01-25T08:11:39;7.00;99.30
40932;DHT22;36257;46.052;12.540;2024-01-25T08:14:05;7.00;99.20
40932;DHT22;36257;46.052;12.540;2024-01-25T08:16:31;7.20;98.80
40932;DHT22;36257;46.052;12.540;2024-01-25T08:18:57;7.20;98.30
40932;DHT22;36257;46.052;12.540;2024-01-25T08:21:24;7.20;98.10
40932;DHT22;36257;46.052;12.540;2024-01-25T08:23:50;7.30;98.50
40932;DHT22;36257;46.052;12.540;2024-01-25T08:26:15;7.30;98.20
40932;DHT22;36257;46.052;12.540;2024-01-25T08:28:42;7.30;97.50
40932;DHT22;36257;46.052;12.540;2024-01-25T08:31:11;7.40;97.70
40932;DHT22;36257;46.052;12.540;2024-01-25T08:33:39;7.50;97.10
40932;DHT22;36257;46.052;12.540;2024-01-25T08:36:09;7.70;97.10
40932;DHT22;36257;46.052;12.540;2024-01-25T08:38:35;7.80;96.50
40932;DHT22;36257;46.052;12.540;2024-01-25T08:41:01;8.00;96.80
40932;DHT22;36257;46.052;12.540;2024-01-25T08:43:27;8.10;97.00
40932;DHT22;36257;46.052;12.540;2024-01-25T08:45:52;8.20;97.40
40932;DHT22;36257;46.052;12.540;2024-01-25T08:48:18;8.40;97.30
40932;DHT22;36257;46.052;12.540;2024-01-25T08:50:44;8.50;96.00
40932;DHT22;36257;46.052;12.540;2024-01-25T08:53:09;8.60;96.60
40932;DHT22;36257;46.052;12.540;2024-01-25T08:55:35;8.80;95.80
40932;DHT22;36257;46.052;12.540;2024-01-25T08:58:01;8.80;94.40
40932;DHT22;36257;46.052;12.540;2024-01-25T09:00:26;9.00;94.80
40932;DHT22;36257;46.052;12.540;2024-01-25T09:02:53;9.20;93.90
40932;DHT22;36257;46.052;12.540;2024-01-25T09:05:18;9.40;93.20
40932;DHT22;36257;46.052;12.540;2024-01-25T09:07:44;9.60;93.30
40932;DHT22;36257;46.052;12.540;2024-01-25T09:10:10;10.00;93.00
40932;DHT22;36257;46.052;12.540;2024-01-25T09:12:37;10.30;91.80
40932;DHT22;36257;46.052;12.540;2024-01-25T09:15:04;10.70;91.20
40932;DHT22;36257;46.052;12.540;2024-01-25T09:17:30;11.10;90.50
40932;DHT22;36257;46.052;12.540;2024-01-25T09:19:56;11.50;88.30
40932;DHT22;36257;46.052;12.540;2024-01-25T09:22:24;11.90;89.10
40932;DHT22;36257;46.052;12.540;2024-01-25T09:24:50;12.10;85.20
40932;DHT22;36257;46.052;12.540;2024-01-25T09:27:15;12.30;84.30
40932;DHT22;36257;46.052;12.540;2024-01-25T09:29:41;12.70;84.60
40932;DHT22;36257;46.052;12.540;2024-01-25T09:32:08;12.90;83.90
40932;DHT22;36257;46.052;12.540;2024-01-25T09:34:37;13.10;82.50
40932;DHT22;36257;46.052;12.540;2024-01-25T09:37:04;13.20;84.20
40932;DHT22;36257;46.052;12.540;2024-01-25T09:39:31;13.10;83.60
40932;DHT22;36257;46.052;12.540;2024-01-25T09:41:57;13.00;81.20
40932;DHT22;36257;46.052;12.540;2024-01-25T09:44:23;12.90;83.30
40932;DHT22;36257;46.052;12.540;2024-01-25T09:46:50;12.80;84.70
40932;DHT22;36257;46.052;12.540;2024-01-25T09:49:16;12.80;85.50
40932;DHT22;36257;46.052;12.540;2024-01-25T09:51:43;12.70;83.80
40932;DHT22;36257;46.052;12.540;2024-01-25T09:54:09;12.60;85.10
40932;DHT22;36257;46.052;12.540;2024-01-25T09:56:35;12.50;84.00
40932;DHT22;36257;46.052;12.540;2024-01-25T09:59:02;12.50;83.10
40932;DHT22;36257;46.052;12.540;2024-01-25T10:01:28;12.60;82.40
40932;DHT22;36257;46.052;12.540;2024-01-25T10:03:54;12.60;84.60
40932;DHT22;36257;46.052;12.540;2024-01-25T10:06:23;12.80;84.80
40932;DHT22;36257;46.052;12.540;2024-01-25T10:08:49;12.80;84.00
40932;DHT22;36257;46.052;12.540;2024-01-25T10:11:16;12.90;85.60
40932;DHT22;36257;46.052;12.540;2024-01-25T10:13:45;13.10;84.70
40932;DHT22;36257;46.052;12.540;2024-01-25T10:16:16;13.20;82.80
40932;DHT22;36257;46.052;12.540;2024-01-25T10:18:42;13.30;83.40
40932;DHT22;36257;46.052;12.540;2024-01-25T10:21:12;13.10;84.90
40932;DHT22;36257;46.052;12.540;2024-01-25T10:23:38;13.10;85.00
40932;DHT22;36257;46.052;12.540;2024-01-25T10:26:05;13.10;83.10
40932;DHT22;36257;46.052;12.540;2024-01-25T10:28:31;13.40;83.90
40932;DHT22;36257;46.052;12.540;2024-01-25T10:31:00;13.70;84.10
40932;DHT22;36257;46.052;12.540;2024-01-25T10:33:27;14.00;82.40
40932;DHT22;36257;46.052;12.540;2024-01-25T10:35:57;14.50;81.70
40932;DHT22;36257;46.052;12.540;2024-01-25T10:38:34;15.00;81.10
40932;DHT22;36257;46.052;12.540;2024-01-25T10:41:04;15.50;79.30
40932;DHT22;36257;46.052;12.540;2024-01-25T13:07:45;18.20;70.50
40932;DHT22;36257;46.052;12.540;2024-01-25T13:10:11;18.40;71.40
40932;DHT22;36257;46.052;12.540;2024-01-25T13:12:40;18.50;71.10
40932;DHT22;36257;46.052;12.540;2024-01-25T13:15:07;18.90;70.50
40932;DHT22;36257;46.052;12.540;2024-01-25T13:17:36;19.30;69.30
40932;DHT22;36257;46.052;12.540;2024-01-25T13:20:02;19.60;68.80
40932;DHT22;36257;46.052;12.540;2024-01-25T13:22:28;19.70;66.90
40932;DHT22;36257;46.052;12.540;2024-01-25T13:24:55;19.60;67.20
40932;DHT22;36257;46.052;12.540;2024-01-25T13:27:21;19.40;67.40
40932;DHT22;36257;46.052;12.540;2024-01-25T13:29:46;18.70;68.50
40932;DHT22;36257;46.052;12.540;2024-01-25T13:32:12;18.50;70.00
40932;DHT22;36257;46.052;12.540;2024-01-25T13:34:38;18.40;69.20
40932;DHT22;36257;46.052;12.540;2024-01-25T13:37:04;18.40;69.20
40932;DHT22;36257;46.052;12.540;2024-01-25T13:39:29;18.50;69.10
40932;DHT22;36257;46.052;12.540;2024-01-25T13:41:55;18.60;70.00
40932;DHT22;36257;46.052;12.540;2024-01-25T13:44:22;18.70;69.40
40932;DHT22;36257;46.052;12.540;2024-01-25T13:46:48;19.10;68.80
40932;DHT22;36257;46.052;12.540;2024-01-25T13:49:13;19.20;67.30
40932;DHT22;36257;46.052;12.540;2024-01-25T13:51:39;19.50;68.10
40932;DHT22;36257;46.052;12.540;2024-01-25T13:54:05;20.00;68.00
40932;DHT22;36257;46.052;12.540;2024-01-25T13:56:30;20.30;66.00
40932;DHT22;36257;46.052;12.540;2024-01-25T13:58:56;20.40;65.60
40932;DHT22;36257;46.052;12.540;2024-01-25T14:01:22;20.40;65.90
40932;DHT22;36257;46.052;12.540;2024-01-25T14:03:47;20.60;65.70
40932;DHT22;36257;46.052;12.540;2024-01-25T14:06:13;20.70;65.10
40932;DHT22;36257;46.052;12.540;2024-01-25T14:08:42;20.90;66.10
40932;DHT22;36257;46.052;12.540;2024-01-25T14:11:09;21.00;65.90
40932;DHT22;36257;46.052;12.540;2024-01-25T14:13:35;20.90;65.20
40932;DHT22;36257;46.052;12.540;2024-01-25T14:16:01;20.80;64.90
40932;DHT22;36257;46.052;12.540;2024-01-25T14:18:27;20.70;64.50
40932;DHT22;36257;46.052;12.540;2024-01-25T14:20:55;20.30;64.70
40932;DHT22;36257;46.052;12.540;2024-01-25T14:23:20;19.20;65.00
40932;DHT22;36257;46.052;12.540;2024-01-25T14:25:46;18.50;66.70
40932;DHT22;36257;46.052;12.540;2024-01-25T14:28:11;18.20;68.50
40932;DHT22;36257;46.052;12.540;2024-01-25T14:30:37;18.20;69.70
40932;DHT22;36257;46.052;12.540;2024-01-25T14:33:03;18.20;68.60
40932;DHT22;36257;46.052;12.540;2024-01-25T14:35:31;18.40;69.00
40932;DHT22;36257;46.052;12.540;2024-01-25T14:37:57;18.00;68.50
40932;DHT22;36257;46.052;12.540;2024-01-25T14:40:24;17.90;68.60
40932;DHT22;36257;46.052;12.540;2024-01-25T14:43:11;17.90;68.50
40932;DHT22;36257;46.052;12.540;2024-01-25T14:48:54;18.10;69.10
40932;DHT22;36257;46.052;12.540;2024-01-25T14:51:20;18.40;67.10
40932;DHT22;36257;46.052;12.540;2024-01-25T14:53:45;18.40;67.20
40932;DHT22;36257;46.052;12.540;2024-01-25T14:56:11;18.30;67.90
40932;DHT22;36257;46.052;12.540;2024-01-25T14:58:39;18.10;68.30
40932;DHT22;36257;46.052;12.540;2024-01-25T15:01:12;17.70;68.00
40932;DHT22;36257;46.052;12.540;2024-01-25T15:06:57;16.70;70.60
40932;DHT22;36257;46.052;12.540;2024-01-25T15:09:47;16.40;71.90
40932;DHT22;36257;46.052;12.540;2024-01-25T15:15:29;15.70;74.70
40932;DHT22;36257;46.052;12.540;2024-01-25T15:17:59;15.60;75.30
40932;DHT22;36257;46.052;12.540;2024-01-25T15:20:25;15.40;75.80
40932;DHT22;36257;46.052;12.540;2024-01-25T15:22:51;15.30;76.40
40932;DHT22;36257;46.052;12.540;2024-01-25T15:25:17;15.10;77.00
40932;DHT22;36257;46.052;12.540;2024-01-25T15:27:43;15.00;77.00
40932;DHT22;36257;46.052;12.540;2024-01-25T15:30:09;14.80;77.60
40932;DHT22;36257;46.052;12.540;2024-01-25T15:32:37;14.70;77.50
40932;DHT22;36257;46.052;12.540;2024-01-25T15:35:03;14.60;78.00
40932;DHT22;36257;46.052;12.540;2024-01-25T15:37:29;14.50;78.20
40932;DHT22;36257;46.052;12.540;2024-01-25T15:39:55;14.40;78.70
40932;DHT22;36257;46.052;12.540;2024-01-25T15:42:20;14.30;79.00
40932;DHT22;36257;46.052;12.540;2024-01-25T15:44:46;14.20;78.90
40932;DHT22;36257;46.052;12.540;2024-01-25T15:47:13;14.00;79.00
40932;DHT22;36257;46.052;12.540;2024-01-25T15:49:39;14.00;79.00
40932;DHT22;36257;46.052;12.540;2024-01-25T15:52:05;13.80;79.50
40932;DHT22;36257;46.052;12.540;2024-01-25T15:54:30;13.60;79.80
40932;DHT22;36257;46.052;12.540;2024-01-25T15:56:56;13.50;80.20
40932;DHT22;36257;46.052;12.540;2024-01-25T15:59:22;13.30;80.50
40932;DHT22;36257;46.052;12.540;2024-01-25T16:01:47;13.10;81.10
40932;DHT22;36257;46.052;12.540;2024-01-25T16:04:13;13.10;81.10
40932;DHT22;36257;46.052;12.540;2024-01-25T16:06:39;13.00;81.20
40932;DHT22;36257;46.052;12.540;2024-01-25T16:09:04;13.00;81.40
40932;DHT22;36257;46.052;12.540;2024-01-25T16:11:30;12.90;81.60
40932;DHT22;36257;46.052;12.540;2024-01-25T16:13:56;12.80;81.90
40932;DHT22;36257;46.052;12.540;2024-01-25T16:16:22;12.80;82.10
40932;DHT22;36257;46.052;12.540;2024-01-25T16:18:47;12.70;82.10
40932;DHT22;36257;46.052;12.540;2024-01-25T16:21:13;12.60;82.40
40932;DHT22;36257;46.052;12.540;2024-01-25T16:23:39;12.40;82.90
40932;DHT22;36257;46.052;12.540;2024-01-25T16:26:04;12.10;83.70
40932;DHT22;36257;46.052;12.540;2024-01-25T16:28:30;11.90;84.40
40932;DHT22;36257;46.052;12.540;2024-01-25T16:30:56;11.70;84.90
40932;DHT22;36257;46.052;12.540;2024-01-25T16:33:22;11.50;85.90
40932;DHT22;36257;46.052;12.540;2024-01-25T16:35:47;11.20;86.70
40932;DHT22;36257;46.052;12.540;2024-01-25T16:38:13;11.10;87.40
40932;DHT22;36257;46.052;12.540;2024-01-25T16:40:41;10.90;88.00
40932;DHT22;36257;46.052;12.540;2024-01-25T16:43:07;10.80;88.60
40932;DHT22;36257;46.052;12.540;2024-01-25T16:45:33;10.90;88.60
40932;DHT22;36257;46.052;12.540;2024-01-25T16:47:59;10.70;88.80
40932;DHT22;36257;46.052;12.540;2024-01-25T16:50:24;10.60;89.20
40932;DHT22;36257;46.052;12.540;2024-01-25T16:52:50;10.50;89.50
40932;DHT22;36257;46.052;12.540;2024-01-25T16:55:17;10.40;89.80
40932;DHT22;36257;46.052;12.540;2024-01-25T16:57:42;10.40;90.10
40932;DHT22;36257;46.052;12.540;2024-01-25T17:00:08;10.30;90.20
40932;DHT22;36257;46.052;12.540;2024-01-25T17:02:34;10.20;90.60
40932;DHT22;36257;46.052;12.540;2024-01-25T17:05:00;10.20;90.50
40932;DHT22;36257;46.052;12.540;2024-01-25T17:07:25;10.20;90.60
40932;DHT22;36257;46.052;12.540;2024-01-25T17:09:52;10.10;90.90
40932;DHT22;36257;46.052;12.540;2024-01-25T17:12:17;10.00;91.10
40932;DHT22;36257;46.052;12.540;2024-01-25T17:14:43;10.00;91.10
40932;DHT22;36257;46.052;12.540;2024-01-25T17:17:09;9.80;91.50
40932;DHT22;36257;46.052;12.540;2024-01-25T17:19:35;9.70;92.20
40932;DHT22;36257;46.052;12.540;2024-01-25T17:22:01;9.60;92.40
40932;DHT22;36257;46.052;12.540;2024-01-25T17:24:27;9.50;92.60
40932;DHT22;36257;46.052;12.540;2024-01-25T17:26:53;9.50;92.60
40932;DHT22;36257;46.052;12.540;2024-01-25T17:29:18;9.50;92.50
40932;DHT22;36257;46.052;12.540;2024-01-25T17:31:44;9.30;93.10
40932;DHT22;36257;46.052;12.540;2024-01-25T17:34:10;9.20;93.70
40932;DHT22;36257;46.052;12.540;2024-01-25T17:36:35;9.10;94.20
40932;DHT22;36257;46.052;12.540;2024-01-25T17:39:01;9.00;94.20
40932;DHT22;36257;46.052;12.540;2024-01-25T17:41:27;8.90;94.30
40932;DHT22;36257;46.052;12.540;2024-01-25T17:43:52;8.90;94.40
40932;DHT22;36257;46.052;12.540;2024-01-25T17:46:18;8.90;94.60
40932;DHT22;36257;46.052;12.540;2024-01-25T17:48:44;8.80;95.00
40932;DHT22;36257;46.052;12.540;2024-01-25T17:51:10;8.70;95.20
40932;DHT22;36257;46.052;12.540;2024-01-25T17:53:38;8.70;95.50